Time;durP1;ratioP1;P1;durP2;ratioP2;P2;SDS_P1;SDS_P2;PMS_P1;PMS_P2;Temp;Humidity;BMP_temperature;BMP_pressure;BME280_temperature;BME280_humidity;BME280_pressure;Samples;Min_cycle;Max_cycle;Signal;HPM_P1;HPM_P2
2023/10/10 00:01:19;;;;;;;;;;;;;;;16.56;100.00;101993.91;5231740;28;20472;-66
2023/10/10 00:03:51;;;;;;;27.92;22.25;;;;;;;15.87;100.00;101997.44;5232329;28;20004;-66
2023/10/10 00:06:24;;;;;;;27.40;22.20;;;;;;;15.85;100.00;101994.91;5244177;28;20094;-67
2023/10/10 00:08:55;;;;;;;25.87;21.50;;;;;;;15.75;100.00;101988.50;5231835;28;20041;-65
2023/10/10 00:11:27;;;;;;;22.53;20.17;;;;;;;15.71;100.00;101996.63;5232234;28;20455;-66
2023/10/10 00:14:05;;;;;;;22.07;19.10;;;;;;;15.93;100.00;101997.06;5231077;28;20033;-68
2023/10/10 00:16:37;;;;;;;25.80;19.23;;;;;;;15.90;100.00;101992.81;5231935;28;20042;-66
2023/10/10 00:19:18;;;;;;;22.77;19.33;;;;;;;16.00;100.00;101993.09;5228567;28;20128;-66
2023/10/10 00:21:50;;;;;;;19.97;17.67;;;;;;;15.85;100.00;101994.91;5247121;28;20032;-67
2023/10/10 00:24:31;;;;;;;20.03;17.70;;;;;;;15.76;100.00;101995.50;5231868;28;20469;-66
2023/10/10 00:27:15;;;;;;;23.57;19.27;;;;;;;15.81;100.00;101993.41;5246649;28;20034;-68
2023/10/10 00:29:48;;;;;;;22.33;18.23;;;;;;;15.75;100.00;101996.44;5246673;28;20376;-69
2023/10/10 00:32:24;;;;;;;23.70;19.67;;;;;;;15.63;100.00;101991.00;5231120;28;20476;-69
2023/10/10 00:34:55;;;;;;;23.00;19.10;;;;;;;15.48;100.00;101992.81;5250177;28;20120;-68
2023/10/10 00:37:29;;;;;;;25.33;18.63;;;;;;;15.51;100.00;101989.13;5257861;28;20112;-69
2023/10/10 00:40:11;;;;;;;23.77;18.83;;;;;;;15.45;100.00;101992.97;5234078;28;20018;-70
2023/10/10 00:42:43;;;;;;;21.90;18.07;;;;;;;15.66;100.00;101987.28;5247685;28;20056;-68
2023/10/10 00:45:14;;;;;;;21.00;18.37;;;;;;;15.40;100.00;101990.66;5228045;28;20080;-68
2023/10/10 00:47:48;;;;;;;20.93;18.30;;;;;;;15.34;100.00;101981.31;5248630;28;20036;-68
2023/10/10 00:50:20;;;;;;;24.13;17.80;;;;;;;15.62;100.00;101981.38;5245814;28;20116;-68
2023/10/10 00:52:55;;;;;;;22.33;18.03;;;;;;;15.63;100.00;101976.94;5234688;28;20459;-69
2023/10/10 00:55:33;;;;;;;24.17;17.93;;;;;;;15.52;100.00;101981.09;5234192;28;20029;-68
2023/10/10 00:58:05;;;;;;;24.80;19.50;;;;;;;15.48;100.00;101983.09;5250076;28;20025;-68
2023/10/10 01:00:42;;;;;;;20.97;18.40;;;;;;;15.42;100.00;101972.06;5227117;28;20108;-69
2023/10/10 01:03:22;;;;;;;19.93;17.60;;;;;;;15.63;100.00;101974.28;5233616;28;20045;-68
2023/10/10 01:05:54;;;;;;;21.57;18.07;;;;;;;15.41;100.00;101965.94;5234225;28;20048;-70
2023/10/10 01:08:31;;;;;;;20.97;18.77;;;;;;;15.44;100.00;101965.75;5234589;28;20037;-69
2023/10/10 01:11:03;;;;;;;21.20;18.23;;;;;;;15.42;100.00;101965.00;5234312;28;20025;-69
2023/10/10 01:13:34;;;;;;;22.80;19.07;;;;;;;15.42;100.00;101961.50;5232876;28;20032;-69
2023/10/10 01:16:06;;;;;;;21.87;18.40;;;;;;;15.46;100.00;101958.56;5234349;28;20472;-70
2023/10/10 01:18:57;;;;;;;20.80;18.60;;;;;;;15.47;100.00;101944.44;5234424;28;20048;-68
2023/10/10 01:21:30;;;;;;;21.20;19.03;;;;;;;15.47;100.00;101946.22;5234006;28;20032;-71
2023/10/10 01:24:12;;;;;;;27.17;20.00;;;;;;;15.52;100.00;101956.47;5234858;28;20049;-66
2023/10/10 01:26:50;;;;;;;25.97;20.73;;;;;;;15.31;100.00;101948.97;5234540;28;20044;-66
2023/10/10 01:31:58;;;;;;;22.50;20.05;;;;;;;15.29;100.00;101946.44;5233560;28;20488;-67
2023/10/10 01:34:43;;;;;;;21.73;19.35;;;;;;;15.33;100.00;101944.44;5234573;28;20100;-68
2023/10/10 01:37:15;;;;;;;22.90;19.63;;;;;;;15.26;100.00;101938.72;5224125;28;20116;-67
2023/10/10 01:39:54;;;;;;;26.50;20.97;;;;;;;15.33;100.00;101941.81;5229596;28;20455;-66
2023/10/10 01:42:37;;;;;;;22.20;19.20;;;;;;;15.31;100.00;101938.41;5233536;28;20084;-66
2023/10/10 01:45:08;;;;;;;22.73;19.67;;;;;;;15.41;100.00;101920.22;5232501;28;20390;-66
2023/10/10 01:47:41;;;;;;;29.73;21.03;;;;;;;15.33;100.00;101920.69;5232752;28;20025;-66
2023/10/10 01:50:13;;;;;;;24.63;21.43;;;;;;;15.34;100.00;101930.34;5233496;28;20404;-66
2023/10/10 01:52:46;;;;;;;24.73;20.73;;;;;;;15.29;100.00;101922.69;5234085;28;20105;-65
2023/10/10 01:55:17;;;;;;;29.63;22.37;;;;;;;15.06;100.00;101929.41;5233399;28;20064;-65
2023/10/10 01:57:48;;;;;;;27.73;21.23;;;;;;;15.17;100.00;101919.03;5234440;28;20111;-70
2023/10/10 02:00:25;;;;;;;27.53;22.23;;;;;;;15.16;100.00;101914.72;5231743;28;20105;-68
2023/10/10 02:02:57;;;;;;;27.33;23.00;;;;;;;15.17;100.00;101915.56;5231439;28;20052;-68
2023/10/10 02:08:09;;;;;;;27.30;22.23;;;;;;;14.95;100.00;101911.59;5233230;28;20034;-69
2023/10/10 02:10:46;;;;;;;27.17;20.73;;;;;;;15.04;100.00;101904.91;5231969;28;20241;-68
2023/10/10 02:13:18;;;;;;;30.27;21.87;;;;;;;15.04;100.00;101902.28;5248171;28;20037;-68
2023/10/10 02:15:49;;;;;;;27.47;21.70;;;;;;;14.99;100.00;101907.84;5233507;28;20024;-68
2023/10/10 02:18:31;;;;;;;29.43;22.97;;;;;;;15.01;100.00;101898.03;5232129;28;20024;-69
2023/10/10 02:21:15;;;;;;;28.23;22.33;;;;;;;14.95;100.00;101891.34;5232794;28;20468;-70
2023/10/10 02:23:47;;;;;;;30.67;23.23;;;;;;;14.99;100.00;101892.00;5233206;28;20104;-68
2023/10/10 02:26:28;;;;;;;24.63;21.27;;;;;;;15.02;100.00;101891.81;5233078;28;20112;-70
2023/10/10 02:29:19;;;;;;;23.43;20.63;;;;;;;14.96;100.00;101887.75;5233511;28;20026;-70
2023/10/10 02:32:06;;;;;;;27.93;22.50;;;;;;;15.04;100.00;101875.88;5230912;28;20033;-68
2023/10/10 02:34:38;;;;;;;28.37;22.77;;;;;;;15.09;100.00;101877.31;5235822;28;20045;-68
2023/10/10 02:39:56;;;;;;;26.27;21.80;;;;;;;14.93;100.00;101876.56;5232580;28;20026;-68
2023/10/10 02:42:27;;;;;;;27.07;22.87;;;;;;;14.95;100.00;101875.53;5248136;28;20037;-68
2023/10/10 02:45:00;;;;;;;25.33;22.63;;;;;;;14.98;100.00;101874.47;5231866;28;20639;-69
2023/10/10 02:47:32;;;;;;;27.73;23.17;;;;;;;14.87;100.00;101873.34;5231974;28;20033;-68
2023/10/10 02:50:10;;;;;;;29.97;24.17;;;;;;;14.90;100.00;101879.38;5245840;28;20167;-69
2023/10/10 02:52:45;;;;;;;32.63;23.73;;;;;;;14.87;100.00;101877.81;5232944;28;20029;-68
2023/10/10 02:55:22;;;;;;;27.70;22.33;;;;;;;14.82;100.00;101877.25;5230020;28;20058;-70
2023/10/10 02:57:53;;;;;;;28.30;22.77;;;;;;;14.86;100.00;101878.72;5229941;28;20512;-70
2023/10/10 03:03:02;;;;;;;24.70;21.50;;;;;;;14.83;100.00;101871.88;5232025;28;20049;-68
2023/10/10 03:05:39;;;;;;;26.23;23.30;;;;;;;14.79;100.00;101861.53;5224471;28;20048;-70
2023/10/10 03:09:12;;;;;;;28.43;23.10;;;;;;;14.88;100.00;101879.47;5229634;28;20034;-68
2023/10/10 03:11:15;;;;;;;29.17;23.37;;;;;;;14.88;100.00;101871.56;5227635;28;20033;-68
2023/10/10 03:13:57;;;;;;;27.90;24.10;;;;;;;14.89;100.00;101870.63;5247746;28;20026;-69
2023/10/10 03:27:01;;;;;;;33.37;26.17;;;;;;;14.81;100.00;101870.25;5231627;28;20088;-71
2023/10/10 03:29:49;;;;;;;33.57;26.37;;;;;;;14.77;100.00;101874.84;5231909;28;20030;-68
2023/10/10 03:32:47;;;;;;;33.47;29.00;;;;;;;14.63;100.00;101862.50;5230563;28;20037;-69
2023/10/10 03:35:33;;;;;;;36.53;27.63;;;;;;;14.75;100.00;101882.84;5246984;28;20945;-68
2023/10/10 03:38:26;;;;;;;30.80;26.30;;;;;;;14.64;100.00;101878.22;5244543;28;20108;-68
2023/10/10 03:41:26;;;;;;;30.50;25.40;;;;;;;14.76;100.00;101876.63;5232146;28;20377;-68
2023/10/10 05:25:55;;;;;;;27.47;22.93;;;;;;;14.44;100.00;101825.84;5233828;28;20628;-67
2023/10/10 05:28:32;;;;;;;27.73;21.40;;;;;;;14.58;100.00;101822.38;5240831;28;20032;-70
2023/10/10 05:31:09;;;;;;;27.70;21.13;;;;;;;14.72;100.00;101816.25;5239894;28;20025;-69
2023/10/10 05:33:41;;;;;;;31.03;20.40;;;;;;;14.65;100.00;101810.53;5225927;28;20034;-67
2023/10/10 05:36:13;;;;;;;27.53;20.87;;;;;;;14.48;100.00;101798.38;5232272;28;20037;-67
2023/10/10 05:38:45;;;;;;;28.90;21.57;;;;;;;14.42;100.00;101810.13;5244727;28;20427;-68
2023/10/10 05:41:19;;;;;;;29.33;20.53;;;;;;;14.59;100.00;101808.28;5231772;28;20108;-67
2023/10/10 05:43:50;;;;;;;29.40;19.83;;;;;;;14.64;100.00;101807.03;5227654;28;20746;-68
2023/10/10 05:46:21;;;;;;;30.10;19.67;;;;;;;14.54;100.00;101805.91;5231137;28;20045;-67
2023/10/10 05:48:53;;;;;;;26.60;20.90;;;;;;;14.47;100.00;101805.44;5238327;28;20030;-70
2023/10/10 05:51:24;;;;;;;25.60;19.37;;;;;;;14.55;100.00;101810.25;5230985;28;20030;-68
2023/10/10 05:53:56;;;;;;;28.87;20.30;;;;;;;14.51;100.00;101814.00;5229924;28;20033;-67
2023/10/10 05:56:29;;;;;;;25.37;18.37;;;;;;;14.44;100.00;101813.53;5236247;28;20029;-67
2023/10/10 05:59:02;;;;;;;22.75;17.55;;;;;;;14.50;100.00;101805.25;5228097;28;20026;-67
2023/10/10 06:01:36;;;;;;;21.63;17.60;;;;;;;14.48;100.00;101808.94;5238124;28;20141;-68
2023/10/10 06:04:08;;;;;;;22.47;16.10;;;;;;;14.49;100.00;101813.25;5252630;28;20745;-67
2023/10/10 06:06:39;;;;;;;26.27;17.90;;;;;;;14.50;100.00;101807.06;5244298;28;20444;-68
2023/10/10 06:09:18;;;;;;;24.20;16.57;;;;;;;14.47;100.00;101791.44;5232914;28;20540;-68
2023/10/10 06:11:49;;;;;;;19.67;16.77;;;;;;;14.52;100.00;101800.72;5240236;28;20026;-67
2023/10/10 06:14:21;;;;;;;24.27;16.83;;;;;;;14.50;100.00;101807.88;5236014;28;20409;-67
2023/10/10 06:16:53;;;;;;;26.73;17.93;;;;;;;14.44;100.00;101800.34;5240012;28;20039;-67
2023/10/10 06:19:25;;;;;;;24.17;17.80;;;;;;;14.31;100.00;101802.91;5232167;28;20025;-69
2023/10/10 06:22:02;;;;;;;23.43;17.40;;;;;;;14.30;100.00;101800.34;5244351;28;20507;-68
2023/10/10 06:24:33;;;;;;;21.83;16.93;;;;;;;14.47;100.00;101802.81;5231251;28;20026;-68
2023/10/10 06:27:08;;;;;;;27.10;17.97;;;;;;;14.48;100.00;101804.50;5232121;28;20506;-69
2023/10/10 06:29:40;;;;;;;23.60;16.57;;;;;;;14.44;100.00;101800.34;5243094;28;20366;-69
2023/10/10 06:32:15;;;;;;;22.93;16.60;;;;;;;14.43;100.00;101798.69;5230908;28;20030;-68
2023/10/10 06:35:04;;;;;;;22.03;15.40;;;;;;;14.50;100.00;101801.78;5232932;28;20029;-68
2023/10/10 06:37:35;;;;;;;26.27;16.93;;;;;;;14.45;100.00;101802.03;5232277;28;20079;-69
2023/10/10 06:40:08;;;;;;;21.30;15.43;;;;;;;14.52;100.00;101800.72;5228426;28;20025;-69
2023/10/10 06:42:46;;;;;;;23.93;16.23;;;;;;;14.51;100.00;101804.31;5247853;28;20120;-69
2023/10/10 06:45:22;;;;;;;22.23;15.63;;;;;;;14.46;100.00;101798.47;5232498;28;20431;-70
2023/10/10 06:47:54;;;;;;;23.03;15.23;;;;;;;14.37;100.00;101792.00;5230865;28;20033;-68
2023/10/10 06:50:31;;;;;;;22.47;15.77;;;;;;;14.39;100.00;101784.84;5232435;28;20036;-68
2023/10/10 06:53:03;;;;;;;28.13;16.77;;;;;;;14.42;100.00;101789.06;5221658;28;20032;-69
2023/10/10 06:55:37;;;;;;;22.23;14.43;;;;;;;14.49;100.00;101795.66;5247101;28;20670;-69
2023/10/10 06:58:12;;;;;;;22.02;15.40;;;;;;;14.62;100.00;101792.25;5244078;28;20386;-68
2023/10/10 07:00:47;;;;;;;21.27;14.90;;;;;;;14.60;100.00;101799.41;5238340;28;20029;-68
2023/10/10 07:03:18;;;;;;;21.57;14.63;;;;;;;14.67;100.00;101791.97;5194782;28;1080777;-68
2023/10/10 07:05:50;;;;;;;19.90;14.30;;;;;;;14.65;100.00;101797.34;5232554;28;20372;-68
2023/10/10 07:08:25;;;;;;;21.90;15.70;;;;;;;14.63;100.00;101792.16;5238088;28;20641;-67
2023/10/10 07:10:56;;;;;;;;;;;;;;;15.16;100.00;101788.06;5237264;28;20025;-68
2023/10/10 07:13:31;;;;;;;21.40;16.13;;;;;;;14.67;100.00;101773.50;5232531;28;20441;-68
2023/10/10 07:16:02;;;;;;;;;;;;;;;15.26;100.00;101782.16;5232042;28;20026;-68
2023/10/10 07:18:33;;;;;;;23.43;15.27;;;;;;;14.80;100.00;101794.69;5243565;28;20389;-69
2023/10/10 07:21:07;;;;;;;21.63;16.10;;;;;;;14.92;100.00;101783.41;5232164;28;20017;-69
2023/10/10 07:23:42;;;;;;;24.25;15.07;;;;;;;14.89;100.00;101775.66;5243168;28;20067;-69
2023/10/10 07:26:20;;;;;;;20.10;14.83;;;;;;;14.95;100.00;101780.56;5231928;28;20087;-67
2023/10/10 07:28:55;;;;;;;23.43;16.53;;;;;;;15.03;100.00;101781.88;5232361;28;20116;-67
2023/10/10 07:31:34;;;;;;;21.97;16.67;;;;;;;15.10;100.00;101785.78;5236748;28;20013;-67
2023/10/10 07:34:15;;;;;;;25.67;16.23;;;;;;;15.17;100.00;101784.47;5236019;28;20108;-68
2023/10/10 07:36:50;;;;;;;22.47;15.23;;;;;;;15.17;100.00;101784.47;5232405;28;20026;-68
2023/10/10 07:39:33;;;;;;;21.57;15.67;;;;;;;15.29;100.00;101785.44;5241823;28;20030;-68
2023/10/10 07:42:09;;;;;;;19.63;14.23;;;;;;;15.29;100.00;101784.63;5247044;28;20071;-68
2023/10/10 07:44:41;;;;;;;19.93;15.80;;;;;;;15.39;100.00;101785.72;5238251;28;20034;-68
2023/10/10 07:49:50;;;;;;;19.47;14.90;;;;;;;15.46;100.00;101772.97;5236801;28;20499;-69
2023/10/10 07:52:22;;;;;;;18.67;14.63;;;;;;;15.51;100.00;101770.00;5237170;28;20368;-68
2023/10/10 07:55:01;;;;;;;21.57;16.50;;;;;;;15.55;100.00;101772.34;5236686;28;20069;-69
2023/10/10 08:00:26;;;;;;;17.37;14.67;;;;;;;15.67;100.00;101775.13;5229280;28;20519;-68
2023/10/10 08:02:58;;;;;;;18.97;14.67;;;;;;;15.80;100.00;101785.69;5229673;28;20053;-68
2023/10/10 08:05:29;;;;;;;24.17;15.67;;;;;;;15.87;100.00;101771.13;5225888;28;20065;-68
2023/10/10 08:08:05;;;;;;;22.57;15.07;;;;;;;15.91;100.00;101777.91;5233636;28;20388;-68
2023/10/10 08:10:39;;;;;;;22.23;14.67;;;;;;;16.21;100.00;101779.41;5235004;28;20029;-67
2023/10/10 08:13:10;;;;;;;20.67;14.43;;;;;;;16.54;100.00;101784.25;5248123;28;20033;-67
2023/10/10 08:18:52;;;;;;;21.43;13.63;;;;;;;17.01;100.00;101784.44;5232412;28;20045;-67
2023/10/10 08:21:24;;;;;;;17.17;14.00;;;;;;;17.54;100.00;101779.78;5233446;28;20026;-68
2023/10/10 08:23:58;;;;;;;17.67;12.70;;;;;;;17.61;100.00;101780.19;5234257;28;20052;-67
2023/10/10 08:26:38;;;;;;;18.33;13.13;;;;;;;17.89;100.00;101786.84;5235953;28;20629;-67
2023/10/10 08:29:12;;;;;;;17.37;13.00;;;;;;;17.95;100.00;101784.69;5232593;28;20026;-67
2023/10/10 08:31:43;;;;;;;17.40;12.93;;;;;;;17.81;100.00;101778.66;5232557;28;20017;-67
2023/10/10 08:34:15;;;;;;;21.87;12.03;;;;;;;17.83;100.00;101779.38;5226290;28;20636;-67
2023/10/10 08:36:48;;;;;;;15.90;11.80;;;;;;;17.87;100.00;101780.81;5232696;28;20158;-69
2023/10/10 08:39:25;;;;;;;18.67;12.65;;;;;;;17.92;100.00;101779.63;5246522;28;20123;-70
2023/10/10 08:41:57;;;;;;;16.63;12.03;;;;;;;18.09;100.00;101770.38;5233956;28;20530;-67
2023/10/10 08:44:30;;;;;;;17.30;10.83;;;;;;;18.51;100.00;101780.44;5232538;28;20026;-68
2023/10/10 08:47:03;;;;;;;17.20;12.57;;;;;;;18.80;100.00;101787.88;5233446;28;20563;-67
2023/10/10 08:49:35;;;;;;;16.37;11.30;;;;;;;19.26;100.00;101774.50;5234606;28;20714;-67
2023/10/10 08:52:07;;;;;;;17.67;10.77;;;;;;;19.61;100.00;101787.63;5234413;28;20018;-66
2023/10/10 08:54:38;;;;;;;16.40;11.07;;;;;;;19.80;100.00;101779.78;5233095;28;20044;-66
2023/10/10 08:57:10;;;;;;;17.40;10.93;;;;;;;20.43;100.00;101790.47;5233603;28;20052;-66
2023/10/10 08:59:42;;;;;;;17.15;11.25;;;;;;;20.57;100.00;101783.09;5234666;28;20031;-67
2023/10/10 09:02:17;;;;;;;18.00;11.18;;;;;;;21.09;100.00;101782.97;5231157;28;20059;-67
2023/10/10 09:04:50;;;;;;;17.75;10.23;;;;;;;21.39;100.00;101783.81;5249946;28;20604;-68
2023/10/10 09:07:23;;;;;;;13.32;8.73;;;;;;;21.88;100.00;101782.94;5233383;28;20033;-66
2023/10/10 09:10:04;;;;;;;16.70;10.15;;;;;;;21.88;100.00;101788.25;5234199;28;20036;-67
2023/10/10 09:12:52;;;;;;;15.60;10.20;;;;;;;22.90;100.00;101792.03;5248970;28;20029;-67
2023/10/10 09:15:27;;;;;;;14.50;9.05;;;;;;;23.77;100.00;101787.13;5234605;28;20463;-68
2023/10/10 09:18:22;;;;;;;13.93;9.93;;;;;;;24.51;100.00;101783.13;5232580;28;20029;-67
2023/10/10 09:21:10;;;;;;;12.82;8.68;;;;;;;24.58;100.00;101780.66;5233302;28;20625;-67
2023/10/10 09:23:43;;;;;;;18.25;10.15;;;;;;;25.43;100.00;101777.94;5234262;28;20025;-66
2023/10/10 09:28:59;;;;;;;14.18;9.52;;;;;;;26.26;100.00;101784.97;5232504;28;20377;-66
2023/10/10 09:31:31;;;;;;;15.43;8.98;;;;;;;26.26;100.00;101785.81;5261863;28;20754;-66
2023/10/10 09:34:03;;;;;;;14.35;8.45;;;;;;;26.53;95.79;101789.06;5233990;28;20021;-68
2023/10/10 09:36:39;;;;;;;14.77;8.82;;;;;;;26.59;85.79;101784.84;5233223;28;20107;-67
2023/10/10 09:39:26;;;;;;;13.95;10.43;;;;;;;26.81;83.52;101791.25;5248483;28;20044;-68
2023/10/10 09:52:59;;;;;;;12.93;8.63;;;;;;;28.93;54.98;101790.56;5233582;28;20464;-68
2023/10/10 10:09:38;;;;;;;13.88;9.55;;;;;;;26.94;63.97;101790.69;5248272;28;20119;-68
2023/10/10 10:12:31;;;;;;;14.50;9.43;;;;;;;26.15;60.19;101783.50;5238277;28;20104;-68
2023/10/10 10:15:28;;;;;;;15.63;10.30;;;;;;;26.33;62.81;101781.44;5242948;28;20025;-67
2023/10/10 10:23:55;;;;;;;13.02;9.30;;;;;;;25.69;64.84;101783.13;5233041;28;20124;-67
2023/10/10 10:26:34;;;;;;;18.38;9.48;;;;;;;25.60;67.17;101776.09;5231555;28;20488;-67
2023/10/10 10:29:15;;;;;;;16.90;9.50;;;;;;;25.08;66.30;101775.44;5239242;28;20041;-65
2023/10/10 10:31:51;;;;;;;14.60;10.70;;;;;;;24.22;72.28;101769.16;5230416;28;20041;-68
2023/10/10 10:34:24;;;;;;;16.65;10.30;;;;;;;24.60;72.54;101766.09;5231891;28;20044;-66
2023/10/10 10:37:12;;;;;;;16.17;10.75;;;;;;;24.91;70.54;101767.31;5231049;28;20040;-67
2023/10/10 10:40:23;;;;;;;13.40;9.63;;;;;;;24.59;69.09;101764.44;5231482;28;20036;-67
2023/10/10 10:42:38;;;;;;;11.48;9.95;;;;;;;23.99;71.57;101767.00;5232165;28;20403;-67
2023/10/10 10:45:24;;;;;;;12.20;9.40;;;;;;;24.13;75.08;101759.38;5230802;28;20029;-66
2023/10/10 10:48:01;;;;;;;12.48;9.80;;;;;;;24.28;70.70;101762.31;5228272;28;20079;-68
2023/10/10 10:50:40;;;;;;;13.57;10.10;;;;;;;24.31;71.21;101756.66;5230937;28;20021;-67
2023/10/10 10:53:32;;;;;;;15.85;9.82;;;;;;;24.36;69.21;101759.69;5245836;28;20136;-67
2023/10/10 11:01:27;;;;;;;14.95;9.85;;;;;;;24.24;70.56;101758.28;5230037;28;20052;-69
2023/10/10 11:03:59;;;;;;;13.02;8.63;;;;;;;24.12;74.96;101757.72;5230303;28;20060;-69
2023/10/10 11:06:30;;;;;;;13.93;9.93;;;;;;;24.39;65.57;101754.00;5229705;28;20469;-67
2023/10/10 11:09:23;;;;;;;13.68;9.32;;;;;;;24.38;65.95;101752.31;5229383;28;20021;-70
2023/10/10 11:12:02;;;;;;;16.50;9.40;;;;;;;24.21;70.14;101746.06;5230358;28;20033;-69
2023/10/10 11:14:45;;;;;;;13.45;8.73;;;;;;;24.09;69.73;101741.97;5245402;28;20041;-69
2023/10/10 11:17:19;;;;;;;14.20;8.68;;;;;;;23.98;71.54;101738.56;5228270;28;20075;-68
2023/10/10 11:19:55;;;;;;;13.68;8.68;;;;;;;24.35;66.08;101727.72;5230207;28;20029;-68
2023/10/10 11:22:38;;;;;;;14.75;9.18;;;;;;;24.37;66.71;101729.22;5229365;28;20816;-68
2023/10/10 11:25:11;;;;;;;15.03;9.53;;;;;;;24.40;68.05;101731.56;5231736;28;20029;-69
2023/10/10 11:27:46;;;;;;;16.25;9.00;;;;;;;24.36;65.83;101727.56;5245235;28;20442;-69
2023/10/10 11:30:24;;;;;;;12.68;8.25;;;;;;;24.20;70.27;101724.81;5228983;28;20037;-68
2023/10/10 11:33:16;;;;;;;14.32;8.20;;;;;;;24.48;66.01;101716.53;5229237;28;20025;-67
2023/10/10 11:35:59;;;;;;;17.38;8.93;;;;;;;24.46;66.35;101718.53;5229715;28;20105;-68
2023/10/10 11:38:35;;;;;;;15.98;9.43;;;;;;;24.54;65.25;101723.94;5230093;28;20047;-70
2023/10/10 11:41:08;;;;;;;14.73;8.27;;;;;;;24.29;69.53;101723.84;5228198;28;20087;-67
2023/10/10 11:44:01;;;;;;;16.00;8.85;;;;;;;24.71;69.77;101711.41;5229955;28;20026;-67
2023/10/10 11:46:33;;;;;;;11.73;7.80;;;;;;;24.67;65.97;101712.72;5240683;28;20120;-69
2023/10/10 11:49:04;;;;;;;11.80;7.95;;;;;;;24.45;68.03;101706.16;5237643;28;20055;-68
2023/10/10 11:51:36;;;;;;;14.40;8.43;;;;;;;24.50;68.99;101701.16;5230193;28;20037;-68
2023/10/10 11:54:07;;;;;;;11.32;8.70;;;;;;;24.33;67.91;101703.78;5230439;28;20111;-68
2023/10/10 11:56:38;;;;;;;18.70;9.23;;;;;;;24.40;69.19;101701.31;5230331;28;20040;-70
2023/10/10 11:59:10;;;;;;;12.93;8.30;;;;;;;24.62;64.78;101699.00;5233722;28;20376;-69
2023/10/10 12:01:54;;;;;;;12.10;7.97;;;;;;;24.65;64.74;101694.16;5230446;28;20030;-68
2023/10/10 12:04:31;;;;;;;14.63;9.10;;;;;;;24.40;65.53;101696.78;5229606;28;20120;-69
2023/10/10 12:07:04;;;;;;;18.13;8.20;;;;;;;24.73;61.28;101695.97;5230443;28;20045;-68
2023/10/10 12:09:38;;;;;;;12.60;7.78;;;;;;;24.63;63.30;101696.16;5229666;28;20045;-68
2023/10/10 12:12:10;;;;;;;15.55;8.43;;;;;;;24.71;63.57;101687.31;5230803;28;20018;-68
2023/10/10 12:14:42;;;;;;;12.13;8.15;;;;;;;24.72;60.55;101690.78;5230054;28;20018;-70
2023/10/10 12:17:14;;;;;;;14.43;8.40;;;;;;;24.54;64.31;101686.44;5241536;28;20369;-68
2023/10/10 12:19:45;;;;;;;15.05;8.48;;;;;;;24.63;62.47;101689.94;5229725;28;20029;-67
2023/10/10 12:22:17;;;;;;;13.45;8.63;;;;;;;24.64;60.07;101686.28;5228609;28;20515;-71
2023/10/10 12:24:50;;;;;;;11.30;8.52;;;;;;;24.64;59.27;101680.94;5226081;28;20037;-67
2023/10/10 12:27:29;;;;;;;14.40;8.30;;;;;;;24.48;60.17;101677.22;5228318;28;20087;-70
2023/10/10 12:30:01;;;;;;;14.07;7.22;;;;;;;24.51;61.58;101681.41;5224121;28;20034;-68
2023/10/10 12:32:34;;;;;;;13.88;8.27;;;;;;;24.55;58.27;101677.41;5234418;28;20032;-68
2023/10/10 12:35:10;;;;;;;23.43;9.90;;;;;;;24.45;59.08;101668.69;5234852;28;20107;-67
2023/10/10 12:37:44;;;;;;;13.15;7.78;;;;;;;24.27;59.57;101664.28;5227628;28;20076;-69
2023/10/10 12:40:15;;;;;;;13.55;7.05;;;;;;;24.29;58.31;101667.66;5233472;28;20072;-68
2023/10/10 12:42:46;;;;;;;10.15;6.50;;;;;;;24.28;59.12;101657.94;5233200;28;20030;-67
2023/10/10 12:45:19;;;;;;;19.52;6.85;;;;;;;24.33;59.20;101658.28;5232770;28;20025;-67
2023/10/10 12:47:50;;;;;;;13.73;7.05;;;;;;;24.21;58.10;101646.22;5233778;28;20036;-68
2023/10/10 12:50:26;;;;;;;13.57;6.68;;;;;;;24.24;57.66;101646.75;5248863;28;20026;-68
2023/10/10 12:53:07;;;;;;;12.50;6.82;;;;;;;24.19;59.00;101645.53;5237048;28;20431;-69
2023/10/10 12:55:48;;;;;;;12.23;7.20;;;;;;;24.09;61.02;101653.69;5234095;28;20499;-67
2023/10/10 12:58:20;;;;;;;11.18;6.20;;;;;;;24.14;56.33;101654.84;5232943;28;20041;-68
2023/10/10 13:00:52;;;;;;;13.43;6.95;;;;;;;23.96;55.81;101646.97;5233182;28;20470;-67
2023/10/10 13:03:27;;;;;;;14.98;6.50;;;;;;;24.04;59.38;101646.97;5232461;28;20104;-67
2023/10/10 13:06:00;;;;;;;14.95;6.45;;;;;;;24.11;57.36;101657.88;5247508;28;20068;-69
2023/10/10 13:08:39;;;;;;;13.13;6.50;;;;;;;24.04;57.55;101654.16;5233387;28;20029;-68
2023/10/10 13:11:18;;;;;;;13.43;5.88;;;;;;;24.11;56.25;101644.47;5233205;28;20028;-68
2023/10/10 13:13:51;;;;;;;11.27;5.30;;;;;;;24.05;56.08;101655.84;5247825;28;20030;-67
2023/10/10 13:19:13;;;;;;;10.27;5.72;;;;;;;23.95;57.52;101647.13;5229978;28;20045;-67
2023/10/10 13:21:47;;;;;;;13.10;5.93;;;;;;;23.98;60.91;101644.94;5233524;28;20025;-67
2023/10/10 13:24:20;;;;;;;18.65;5.78;;;;;;;24.13;57.54;101653.19;5232470;28;20061;-67
2023/10/10 13:26:51;;;;;;;14.70;5.90;;;;;;;24.15;55.42;101645.84;5230843;28;20404;-69
2023/10/10 13:29:22;;;;;;;9.48;5.93;;;;;;;24.22;55.95;101643.38;5233002;28;20044;-67
2023/10/10 13:31:54;;;;;;;11.95;5.97;;;;;;;24.28;56.73;101647.22;5231164;28;20029;-69
2023/10/10 13:34:25;;;;;;;9.13;5.57;;;;;;;24.28;55.97;101647.22;5231865;28;20045;-67
2023/10/10 13:36:56;;;;;;;10.88;6.00;;;;;;;24.26;54.37;101642.03;5246667;28;20053;-67
2023/10/10 13:39:42;;;;;;;10.38;5.55;;;;;;;24.30;56.84;101653.25;5250576;28;20041;-69
2023/10/10 13:42:14;;;;;;;12.32;5.70;;;;;;;24.19;60.29;101645.53;5237602;28;20040;-68
2023/10/10 13:44:48;;;;;;;10.27;5.38;;;;;;;24.23;60.42;101636.16;5231606;28;20033;-69
2023/10/10 13:47:19;;;;;;;15.23;5.72;;;;;;;24.39;57.31;101638.06;5247760;28;20029;-68
2023/10/10 13:50:28;;;;;;;10.38;5.78;;;;;;;24.33;58.41;101636.84;5232901;28;20036;-67
2023/10/10 13:52:42;;;;;;;11.73;5.20;;;;;;;24.46;55.30;101628.34;5234200;28;20071;-66
2023/10/10 13:55:13;;;;;;;10.68;4.68;;;;;;;24.44;58.69;101637.53;5245328;28;20480;-69
2023/10/10 13:57:44;;;;;;;9.27;5.15;;;;;;;24.61;56.22;101639.25;5231321;28;20537;-69
2023/10/10 14:00:29;;;;;;;15.82;6.32;;;;;;;24.67;54.71;101632.38;5231096;28;20021;-69
2023/10/10 14:03:03;;;;;;;12.25;5.10;;;;;;;24.65;54.92;101629.88;5231167;28;20046;-69
2023/10/10 14:05:37;;;;;;;9.63;4.93;;;;;;;24.72;56.32;101630.03;5230401;28;20029;-71
2023/10/10 14:08:17;;;;;;;9.75;4.75;;;;;;;24.57;59.14;101619.16;5228529;28;20434;-71
2023/10/10 14:10:50;;;;;;;14.15;5.03;;;;;;;24.63;55.43;101620.31;5246067;28;20067;-69
2023/10/10 14:13:23;;;;;;;12.63;5.23;;;;;;;24.49;56.23;101616.50;5230227;28;20057;-72
2023/10/10 14:15:56;;;;;;;10.52;4.82;;;;;;;24.62;54.25;101611.47;5229570;28;20759;-70
2023/10/10 14:18:31;;;;;;;13.38;5.45;;;;;;;24.75;51.15;101616.31;5230086;28;20032;-68
2023/10/10 14:21:08;;;;;;;11.45;5.55;;;;;;;24.72;52.61;101619.34;5229872;28;20550;-70
2023/10/10 14:23:40;;;;;;;11.88;6.07;;;;;;;24.72;49.69;101615.81;5230028;28;20665;-69
2023/10/10 14:26:17;;;;;;;9.02;5.18;;;;;;;24.72;48.49;101613.13;5225346;28;20120;-69
2023/10/10 14:28:51;;;;;;;10.30;5.70;;;;;;;24.63;50.91;101614.97;5234293;28;20029;-69
2023/10/10 14:31:24;;;;;;;10.23;5.03;;;;;;;24.71;49.85;101606.13;5230204;28;20117;-66
2023/10/10 14:33:59;;;;;;;10.30;4.82;;;;;;;24.65;49.25;101597.75;5231639;28;20562;-66
2023/10/10 14:36:31;;;;;;;13.00;5.90;;;;;;;24.79;47.49;101598.06;5231071;28;20029;-67
2023/10/10 14:39:02;;;;;;;11.20;5.03;;;;;;;24.73;47.96;101591.53;5231611;28;20042;-68
2023/10/10 14:41:34;;;;;;;8.32;4.90;;;;;;;24.63;50.50;101593.53;5231041;28;20029;-67